sensor_id;sensor_type;location;lat;lon;timestamp;P1;durP1;ratioP1;P2;durP2;ratioP2
39776;SDS011;25453;48.162;14.510;2022-11-09T00:00:22;9.68;;;4.47;;
39776;SDS011;25453;48.162;14.510;2022-11-09T00:02:50;8.38;;;3.60;;
39776;SDS011;25453;48.162;14.510;2022-11-09T00:05:26;8.35;;;3.78;;
39776;SDS011;25453;48.162;14.510;2022-11-09T00:07:53;8.88;;;4.07;;
39776;SDS011;25453;48.162;14.510;2022-11-09T00:10:27;8.65;;;3.47;;
39776;SDS011;25453;48.162;14.510;2022-11-09T00:13:01;9.18;;;4.25;;
39776;SDS011;25453;48.162;14.510;2022-11-09T00:15:35;9.05;;;3.58;;
39776;SDS011;25453;48.162;14.510;2022-11-09T00:18:09;9.73;;;4.60;;
39776;SDS011;25453;48.162;14.510;2022-11-09T00:20:36;7.57;;;3.90;;
39776;SDS011;25453;48.162;14.510;2022-11-09T00:23:14;8.80;;;3.30;;
39776;SDS011;25453;48.162;14.510;2022-11-09T00:25:58;9.23;;;3.67;;
39776;SDS011;25453;48.162;14.510;2022-11-09T00:28:29;7.77;;;3.10;;
39776;SDS011;25453;48.162;14.510;2022-11-09T00:31:04;8.75;;;3.67;;
39776;SDS011;25453;48.162;14.510;2022-11-09T00:33:39;9.38;;;3.50;;
39776;SDS011;25453;48.162;14.510;2022-11-09T00:36:09;9.43;;;3.95;;
39776;SDS011;25453;48.162;14.510;2022-11-09T00:38:48;9.75;;;3.88;;
39776;SDS011;25453;48.162;14.510;2022-11-09T00:41:27;7.90;;;3.63;;
39776;SDS011;25453;48.162;14.510;2022-11-09T00:43:55;8.60;;;3.15;;
39776;SDS011;25453;48.162;14.510;2022-11-09T00:46:28;12.25;;;3.70;;
39776;SDS011;25453;48.162;14.510;2022-11-09T00:48:56;9.57;;;3.80;;
39776;SDS011;25453;48.162;14.510;2022-11-09T00:51:29;10.80;;;3.97;;
39776;SDS011;25453;48.162;14.510;2022-11-09T00:53:56;9.98;;;3.78;;
39776;SDS011;25453;48.162;14.510;2022-11-09T00:56:30;10.18;;;3.70;;
39776;SDS011;25453;48.162;14.510;2022-11-09T00:58:57;8.20;;;3.47;;
39776;SDS011;25453;48.162;14.510;2022-11-09T01:01:24;8.07;;;3.65;;
39776;SDS011;25453;48.162;14.510;2022-11-09T01:03:58;8.48;;;3.67;;
39776;SDS011;25453;48.162;14.510;2022-11-09T01:06:25;7.22;;;3.17;;
39776;SDS011;25453;48.162;14.510;2022-11-09T01:09:00;6.63;;;3.13;;
39776;SDS011;25453;48.162;14.510;2022-11-09T01:11:27;6.75;;;3.33;;
39776;SDS011;25453;48.162;14.510;2022-11-09T01:14:00;6.88;;;2.60;;
39776;SDS011;25453;48.162;14.510;2022-11-09T01:16:27;6.53;;;2.70;;
39776;SDS011;25453;48.162;14.510;2022-11-09T01:19:01;7.13;;;3.25;;
39776;SDS011;25453;48.162;14.510;2022-11-09T01:21:36;9.98;;;3.83;;
39776;SDS011;25453;48.162;14.510;2022-11-09T01:24:09;8.82;;;3.55;;
39776;SDS011;25453;48.162;14.510;2022-11-09T01:26:43;6.77;;;2.70;;
39776;SDS011;25453;48.162;14.510;2022-11-09T01:29:17;7.05;;;2.88;;
39776;SDS011;25453;48.162;14.510;2022-11-09T01:31:44;6.38;;;3.10;;
39776;SDS011;25453;48.162;14.510;2022-11-09T01:34:20;8.70;;;3.13;;
39776;SDS011;25453;48.162;14.510;2022-11-09T01:36:50;8.10;;;4.20;;
39776;SDS011;25453;48.162;14.510;2022-11-09T01:39:24;7.13;;;3.38;;
39776;SDS011;25453;48.162;14.510;2022-11-09T01:41:58;8.43;;;3.80;;
39776;SDS011;25453;48.162;14.510;2022-11-09T01:44:26;6.22;;;3.25;;
39776;SDS011;25453;48.162;14.510;2022-11-09T01:47:00;8.48;;;3.00;;
39776;SDS011;25453;48.162;14.510;2022-11-09T01:49:44;8.05;;;3.85;;
39776;SDS011;25453;48.162;14.510;2022-11-09T01:52:34;6.13;;;3.13;;
39776;SDS011;25453;48.162;14.510;2022-11-09T01:55:08;8.77;;;3.80;;
39776;SDS011;25453;48.162;14.510;2022-11-09T01:57:50;6.32;;;2.97;;
39776;SDS011;25453;48.162;14.510;2022-11-09T02:00:19;8.48;;;3.50;;
39776;SDS011;25453;48.162;14.510;2022-11-09T02:03:05;8.68;;;3.90;;
39776;SDS011;25453;48.162;14.510;2022-11-09T02:05:36;8.43;;;3.92;;
39776;SDS011;25453;48.162;14.510;2022-11-09T02:08:13;8.48;;;3.80;;
39776;SDS011;25453;48.162;14.510;2022-11-09T02:10:45;8.50;;;4.05;;
39776;SDS011;25453;48.162;14.510;2022-11-09T02:13:23;7.85;;;3.15;;
39776;SDS011;25453;48.162;14.510;2022-11-09T02:15:52;9.65;;;4.05;;
39776;SDS011;25453;48.162;14.510;2022-11-09T02:18:26;10.30;;;3.85;;
39776;SDS011;25453;48.162;14.510;2022-11-09T02:21:07;10.52;;;4.20;;
39776;SDS011;25453;48.162;14.510;2022-11-09T02:23:40;8.95;;;3.72;;
39776;SDS011;25453;48.162;14.510;2022-11-09T02:26:23;8.57;;;4.53;;
39776;SDS011;25453;48.162;14.510;2022-11-09T02:29:02;10.02;;;4.05;;
39776;SDS011;25453;48.162;14.510;2022-11-09T02:31:33;10.55;;;4.57;;
39776;SDS011;25453;48.162;14.510;2022-11-09T02:34:12;10.95;;;4.85;;
39776;SDS011;25453;48.162;14.510;2022-11-09T02:36:42;11.35;;;5.18;;
39776;SDS011;25453;48.162;14.510;2022-11-09T02:39:17;10.87;;;4.50;;
39776;SDS011;25453;48.162;14.510;2022-11-09T02:41:49;7.85;;;3.50;;
39776;SDS011;25453;48.162;14.510;2022-11-09T02:44:47;9.65;;;4.45;;
39776;SDS011;25453;48.162;14.510;2022-11-09T02:47:18;12.73;;;4.63;;
39776;SDS011;25453;48.162;14.510;2022-11-09T02:49:52;11.98;;;4.72;;
39776;SDS011;25453;48.162;14.510;2022-11-09T02:52:20;11.70;;;4.60;;
39776;SDS011;25453;48.162;14.510;2022-11-09T02:54:53;11.23;;;4.45;;
39776;SDS011;25453;48.162;14.510;2022-11-09T02:57:20;11.25;;;4.63;;
39776;SDS011;25453;48.162;14.510;2022-11-09T02:59:54;8.05;;;3.90;;
39776;SDS011;25453;48.162;14.510;2022-11-09T03:02:21;10.63;;;4.30;;
39776;SDS011;25453;48.162;14.510;2022-11-09T03:04:55;11.13;;;4.35;;
39776;SDS011;25453;48.162;14.510;2022-11-09T03:07:22;10.77;;;4.05;;
39776;SDS011;25453;48.162;14.510;2022-11-09T03:09:56;9.50;;;3.92;;
39776;SDS011;25453;48.162;14.510;2022-11-09T03:12:30;10.02;;;4.25;;
39776;SDS011;25453;48.162;14.510;2022-11-09T03:15:05;10.48;;;4.13;;
39776;SDS011;25453;48.162;14.510;2022-11-09T03:17:34;8.32;;;3.67;;
39776;SDS011;25453;48.162;14.510;2022-11-09T03:20:08;11.40;;;4.22;;
39776;SDS011;25453;48.162;14.510;2022-11-09T03:22:49;8.27;;;3.72;;
39776;SDS011;25453;48.162;14.510;2022-11-09T03:25:29;10.30;;;4.10;;
39776;SDS011;25453;48.162;14.510;2022-11-09T03:27:57;7.97;;;3.95;;
39776;SDS011;25453;48.162;14.510;2022-11-09T03:30:25;13.05;;;5.60;;
39776;SDS011;25453;48.162;14.510;2022-11-09T03:33:00;10.02;;;5.15;;
39776;SDS011;25453;48.162;14.510;2022-11-09T03:35:36;10.38;;;4.85;;
39776;SDS011;25453;48.162;14.510;2022-11-09T03:38:03;13.75;;;5.32;;
39776;SDS011;25453;48.162;14.510;2022-11-09T03:40:31;14.15;;;4.80;;
39776;SDS011;25453;48.162;14.510;2022-11-09T03:43:05;12.43;;;4.57;;
39776;SDS011;25453;48.162;14.510;2022-11-09T03:45:32;16.92;;;5.85;;
39776;SDS011;25453;48.162;14.510;2022-11-09T03:48:06;11.70;;;5.28;;
39776;SDS011;25453;48.162;14.510;2022-11-09T03:50:34;10.13;;;3.88;;
39776;SDS011;25453;48.162;14.510;2022-11-09T03:53:12;9.85;;;4.15;;
39776;SDS011;25453;48.162;14.510;2022-11-09T03:55:47;8.27;;;3.15;;
39776;SDS011;25453;48.162;14.510;2022-11-09T03:58:14;10.15;;;3.80;;
39776;SDS011;25453;48.162;14.510;2022-11-09T04:00:47;13.00;;;4.75;;
39776;SDS011;25453;48.162;14.510;2022-11-09T04:03:21;11.00;;;4.15;;
39776;SDS011;25453;48.162;14.510;2022-11-09T04:05:57;10.70;;;4.72;;
39776;SDS011;25453;48.162;14.510;2022-11-09T04:08:31;7.97;;;3.40;;
39776;SDS011;25453;48.162;14.510;2022-11-09T04:10:58;10.38;;;3.75;;
39776;SDS011;25453;48.162;14.510;2022-11-09T04:13:26;9.02;;;3.28;;
39776;SDS011;25453;48.162;14.510;2022-11-09T04:15:59;7.63;;;3.55;;
39776;SDS011;25453;48.162;14.510;2022-11-09T04:18:34;11.20;;;3.90;;
39776;SDS011;25453;48.162;14.510;2022-11-09T04:21:14;7.55;;;3.35;;
39776;SDS011;25453;48.162;14.510;2022-11-09T04:23:49;11.23;;;3.97;;
39776;SDS011;25453;48.162;14.510;2022-11-09T04:26:22;10.65;;;4.10;;
39776;SDS011;25453;48.162;14.510;2022-11-09T04:28:56;8.50;;;3.72;;
39776;SDS011;25453;48.162;14.510;2022-11-09T04:31:24;9.55;;;3.78;;
39776;SDS011;25453;48.162;14.510;2022-11-09T04:33:57;8.43;;;3.45;;
39776;SDS011;25453;48.162;14.510;2022-11-09T04:36:24;8.23;;;3.53;;
39776;SDS011;25453;48.162;14.510;2022-11-09T04:38:51;9.52;;;3.95;;
39776;SDS011;25453;48.162;14.510;2022-11-09T04:41:26;10.57;;;4.38;;
39776;SDS011;25453;48.162;14.510;2022-11-09T04:44:00;9.13;;;4.32;;
39776;SDS011;25453;48.162;14.510;2022-11-09T04:46:27;11.98;;;4.65;;
39776;SDS011;25453;48.162;14.510;2022-11-09T04:49:01;10.77;;;4.40;;
39776;SDS011;25453;48.162;14.510;2022-11-09T04:51:29;8.95;;;4.22;;
39776;SDS011;25453;48.162;14.510;2022-11-09T04:54:02;11.55;;;4.60;;
39776;SDS011;25453;48.162;14.510;2022-11-09T04:56:36;12.23;;;4.68;;
39776;SDS011;25453;48.162;14.510;2022-11-09T04:59:10;14.68;;;5.38;;
39776;SDS011;25453;48.162;14.510;2022-11-09T05:01:44;15.30;;;5.55;;
39776;SDS011;25453;48.162;14.510;2022-11-09T05:04:12;12.55;;;5.30;;
39776;SDS011;25453;48.162;14.510;2022-11-09T05:06:45;13.68;;;4.97;;
39776;SDS011;25453;48.162;14.510;2022-11-09T05:09:13;13.48;;;5.45;;
39776;SDS011;25453;48.162;14.510;2022-11-09T05:11:46;14.35;;;5.78;;
39776;SDS011;25453;48.162;14.510;2022-11-09T05:14:14;11.55;;;5.18;;
39776;SDS011;25453;48.162;14.510;2022-11-09T05:16:47;11.75;;;4.32;;
39776;SDS011;25453;48.162;14.510;2022-11-09T05:19:14;13.23;;;4.90;;
39776;SDS011;25453;48.162;14.510;2022-11-09T05:21:42;8.90;;;3.85;;
39776;SDS011;25453;48.162;14.510;2022-11-09T05:24:22;10.43;;;3.72;;
39776;SDS011;25453;48.162;14.510;2022-11-09T05:26:49;10.65;;;3.60;;
39776;SDS011;25453;48.162;14.510;2022-11-09T05:29:25;10.52;;;4.05;;
39776;SDS011;25453;48.162;14.510;2022-11-09T05:31:52;7.95;;;3.65;;
39776;SDS011;25453;48.162;14.510;2022-11-09T05:34:26;7.80;;;3.40;;
39776;SDS011;25453;48.162;14.510;2022-11-09T05:36:54;10.32;;;4.13;;
39776;SDS011;25453;48.162;14.510;2022-11-09T05:39:29;8.35;;;3.00;;
39776;SDS011;25453;48.162;14.510;2022-11-09T05:42:02;12.63;;;3.80;;
39776;SDS011;25453;48.162;14.510;2022-11-09T05:44:29;10.30;;;3.53;;
39776;SDS011;25453;48.162;14.510;2022-11-09T05:46:57;7.90;;;3.13;;
39776;SDS011;25453;48.162;14.510;2022-11-09T05:49:30;12.07;;;4.63;;
39776;SDS011;25453;48.162;14.510;2022-11-09T05:51:57;9.80;;;3.67;;
39776;SDS011;25453;48.162;14.510;2022-11-09T05:54:31;9.05;;;3.15;;
39776;SDS011;25453;48.162;14.510;2022-11-09T05:56:58;6.75;;;2.92;;
39776;SDS011;25453;48.162;14.510;2022-11-09T05:59:33;7.47;;;2.92;;
39776;SDS011;25453;48.162;14.510;2022-11-09T06:02:00;6.30;;;2.50;;
39776;SDS011;25453;48.162;14.510;2022-11-09T06:04:28;5.35;;;2.60;;
39776;SDS011;25453;48.162;14.510;2022-11-09T06:07:01;7.43;;;2.90;;
39776;SDS011;25453;48.162;14.510;2022-11-09T06:09:29;8.40;;;2.75;;
39776;SDS011;25453;48.162;14.510;2022-11-09T06:12:02;8.82;;;3.00;;
39776;SDS011;25453;48.162;14.510;2022-11-09T06:14:30;6.53;;;2.53;;
39776;SDS011;25453;48.162;14.510;2022-11-09T06:17:03;9.77;;;2.75;;
39776;SDS011;25453;48.162;14.510;2022-11-09T06:19:37;9.63;;;2.90;;
39776;SDS011;25453;48.162;14.510;2022-11-09T06:22:04;9.65;;;3.78;;
39776;SDS011;25453;48.162;14.510;2022-11-09T06:24:52;8.40;;;4.15;;
39776;SDS011;25453;48.162;14.510;2022-11-09T06:27:19;7.90;;;3.40;;
39776;SDS011;25453;48.162;14.510;2022-11-09T06:29:53;9.80;;;3.80;;
39776;SDS011;25453;48.162;14.510;2022-11-09T06:32:20;8.50;;;3.60;;
39776;SDS011;25453;48.162;14.510;2022-11-09T06:34:54;8.85;;;3.65;;
39776;SDS011;25453;48.162;14.510;2022-11-09T06:37:28;11.90;;;4.00;;
39776;SDS011;25453;48.162;14.510;2022-11-09T06:39:55;9.90;;;3.35;;
39776;SDS011;25453;48.162;14.510;2022-11-09T06:42:29;9.85;;;3.38;;
39776;SDS011;25453;48.162;14.510;2022-11-09T06:44:57;6.80;;;3.17;;
39776;SDS011;25453;48.162;14.510;2022-11-09T06:47:24;9.77;;;3.30;;
39776;SDS011;25453;48.162;14.510;2022-11-09T06:50:00;7.13;;;3.15;;
39776;SDS011;25453;48.162;14.510;2022-11-09T06:52:27;9.15;;;3.60;;
39776;SDS011;25453;48.162;14.510;2022-11-09T06:55:01;9.73;;;3.97;;
39776;SDS011;25453;48.162;14.510;2022-11-09T06:57:29;13.43;;;4.03;;
39776;SDS011;25453;48.162;14.510;2022-11-09T06:59:56;9.43;;;3.50;;
39776;SDS011;25453;48.162;14.510;2022-11-09T07:02:32;10.77;;;3.95;;
39776;SDS011;25453;48.162;14.510;2022-11-09T07:05:05;7.65;;;3.28;;
39776;SDS011;25453;48.162;14.510;2022-11-09T07:07:33;9.02;;;3.35;;
39776;SDS011;25453;48.162;14.510;2022-11-09T07:10:06;8.05;;;3.63;;
39776;SDS011;25453;48.162;14.510;2022-11-09T07:12:34;8.60;;;3.08;;
39776;SDS011;25453;48.162;14.510;2022-11-09T07:15:02;9.68;;;3.45;;
39776;SDS011;25453;48.162;14.510;2022-11-09T07:17:36;6.20;;;3.00;;
39776;SDS011;25453;48.162;14.510;2022-11-09T07:20:11;7.10;;;3.50;;
39776;SDS011;25453;48.162;14.510;2022-11-09T07:22:40;6.80;;;2.65;;
39776;SDS011;25453;48.162;14.510;2022-11-09T07:25:13;8.30;;;2.75;;
39776;SDS011;25453;48.162;14.510;2022-11-09T07:27:47;8.48;;;2.53;;
39776;SDS011;25453;48.162;14.510;2022-11-09T07:30:21;6.47;;;2.35;;
39776;SDS011;25453;48.162;14.510;2022-11-09T07:32:55;6.05;;;2.40;;
39776;SDS011;25453;48.162;14.510;2022-11-09T07:35:36;8.27;;;2.58;;
39776;SDS011;25453;48.162;14.510;2022-11-09T07:38:04;6.55;;;2.80;;
39776;SDS011;25453;48.162;14.510;2022-11-09T07:40:37;6.10;;;2.90;;
39776;SDS011;25453;48.162;14.510;2022-11-09T07:43:12;6.55;;;2.70;;
39776;SDS011;25453;48.162;14.510;2022-11-09T07:45:47;7.03;;;2.75;;
39776;SDS011;25453;48.162;14.510;2022-11-09T07:48:20;5.35;;;2.60;;
39776;SDS011;25453;48.162;14.510;2022-11-09T07:50:47;6.25;;;2.67;;
39776;SDS011;25453;48.162;14.510;2022-11-09T07:53:15;8.32;;;2.40;;
39776;SDS011;25453;48.162;14.510;2022-11-09T07:55:59;6.70;;;2.92;;
39776;SDS011;25453;48.162;14.510;2022-11-09T07:58:28;5.07;;;2.22;;
39776;SDS011;25453;48.162;14.510;2022-11-09T08:01:09;6.78;;;2.55;;
39776;SDS011;25453;48.162;14.510;2022-11-09T08:03:43;6.93;;;2.72;;
39776;SDS011;25453;48.162;14.510;2022-11-09T08:06:17;4.93;;;2.15;;
39776;SDS011;25453;48.162;14.510;2022-11-09T08:08:45;5.50;;;2.15;;
39776;SDS011;25453;48.162;14.510;2022-11-09T08:11:18;6.90;;;2.90;;
39776;SDS011;25453;48.162;14.510;2022-11-09T08:13:45;5.95;;;2.45;;
39776;SDS011;25453;48.162;14.510;2022-11-09T08:16:19;6.90;;;2.92;;
39776;SDS011;25453;48.162;14.510;2022-11-09T08:18:48;6.85;;;2.63;;
39776;SDS011;25453;48.162;14.510;2022-11-09T08:21:16;3.63;;;1.67;;
39776;SDS011;25453;48.162;14.510;2022-11-09T08:23:50;4.80;;;2.28;;
39776;SDS011;25453;48.162;14.510;2022-11-09T08:26:31;5.57;;;2.05;;
39776;SDS011;25453;48.162;14.510;2022-11-09T08:28:59;5.13;;;2.22;;
39776;SDS011;25453;48.162;14.510;2022-11-09T08:31:32;4.78;;;2.20;;
39776;SDS011;25453;48.162;14.510;2022-11-09T08:34:10;5.00;;;1.80;;
39776;SDS011;25453;48.162;14.510;2022-11-09T08:36:39;5.13;;;1.83;;
39776;SDS011;25453;48.162;14.510;2022-11-09T08:39:13;6.13;;;2.90;;
39776;SDS011;25453;48.162;14.510;2022-11-09T08:41:41;5.13;;;2.08;;
39776;SDS011;25453;48.162;14.510;2022-11-09T08:44:14;5.60;;;2.13;;
39776;SDS011;25453;48.162;14.510;2022-11-09T08:46:48;4.90;;;2.00;;
39776;SDS011;25453;48.162;14.510;2022-11-09T08:49:15;4.22;;;1.73;;
39776;SDS011;25453;48.162;14.510;2022-11-09T08:51:49;5.20;;;2.30;;
39776;SDS011;25453;48.162;14.510;2022-11-09T08:54:23;5.55;;;2.55;;
39776;SDS011;25453;48.162;14.510;2022-11-09T08:56:53;6.03;;;1.83;;
39776;SDS011;25453;48.162;14.510;2022-11-09T08:59:27;5.78;;;2.13;;
39776;SDS011;25453;48.162;14.510;2022-11-09T09:02:01;5.37;;;2.40;;
39776;SDS011;25453;48.162;14.510;2022-11-09T09:04:35;5.88;;;2.03;;
39776;SDS011;25453;48.162;14.510;2022-11-09T09:07:02;4.03;;;1.88;;
39776;SDS011;25453;48.162;14.510;2022-11-09T09:09:30;7.05;;;2.08;;
39776;SDS011;25453;48.162;14.510;2022-11-09T09:12:04;4.75;;;2.13;;
39776;SDS011;25453;48.162;14.510;2022-11-09T09:14:38;4.30;;;1.98;;
39776;SDS011;25453;48.162;14.510;2022-11-09T09:17:06;4.45;;;2.17;;
39776;SDS011;25453;48.162;14.510;2022-11-09T09:19:33;5.97;;;2.33;;
39776;SDS011;25453;48.162;14.510;2022-11-09T09:22:19;6.05;;;2.55;;
39776;SDS011;25453;48.162;14.510;2022-11-09T09:24:59;5.47;;;2.40;;
39776;SDS011;25453;48.162;14.510;2022-11-09T09:27:33;5.33;;;2.90;;
39776;SDS011;25453;48.162;14.510;2022-11-09T09:30:01;6.22;;;2.10;;
39776;SDS011;25453;48.162;14.510;2022-11-09T09:32:35;6.72;;;2.85;;
39776;SDS011;25453;48.162;14.510;2022-11-09T09:35:02;4.05;;;2.05;;
39776;SDS011;25453;48.162;14.510;2022-11-09T09:37:36;6.15;;;2.80;;
39776;SDS011;25453;48.162;14.510;2022-11-09T09:40:04;6.00;;;2.22;;
39776;SDS011;25453;48.162;14.510;2022-11-09T09:42:41;5.28;;;2.60;;
39776;SDS011;25453;48.162;14.510;2022-11-09T09:45:30;6.05;;;2.17;;
39776;SDS011;25453;48.162;14.510;2022-11-09T09:48:16;6.38;;;2.25;;
39776;SDS011;25453;48.162;14.510;2022-11-09T09:51:08;5.35;;;2.65;;
39776;SDS011;25453;48.162;14.510;2022-11-09T09:53:55;3.38;;;1.75;;
39776;SDS011;25453;48.162;14.510;2022-11-09T09:56:36;4.05;;;1.83;;
39776;SDS011;25453;48.162;14.510;2022-11-09T10:01:59;4.20;;;1.88;;
39776;SDS011;25453;48.162;14.510;2022-11-09T10:04:36;4.38;;;1.80;;
39776;SDS011;25453;48.162;14.510;2022-11-09T10:07:11;4.85;;;1.98;;
39776;SDS011;25453;48.162;14.510;2022-11-09T10:18:33;6.30;;;2.60;;
39776;SDS011;25453;48.162;14.510;2022-11-09T10:21:24;6.22;;;2.53;;
39776;SDS011;25453;48.162;14.510;2022-11-09T10:27:21;7.50;;;2.40;;
39776;SDS011;25453;48.162;14.510;2022-11-09T10:30:12;6.43;;;2.53;;
39776;SDS011;25453;48.162;14.510;2022-11-09T10:32:43;7.25;;;2.45;;
39776;SDS011;25453;48.162;14.510;2022-11-09T10:35:33;7.63;;;2.40;;
39776;SDS011;25453;48.162;14.510;2022-11-09T10:38:21;5.60;;;2.25;;
39776;SDS011;25453;48.162;14.510;2022-11-09T10:41:00;6.55;;;2.28;;
39776;SDS011;25453;48.162;14.510;2022-11-09T10:43:42;5.75;;;2.28;;
39776;SDS011;25453;48.162;14.510;2022-11-09T10:46:09;4.20;;;1.70;;
39776;SDS011;25453;48.162;14.510;2022-11-09T10:48:43;3.80;;;1.50;;
39776;SDS011;25453;48.162;14.510;2022-11-09T10:54:23;3.88;;;1.60;;
39776;SDS011;25453;48.162;14.510;2022-11-09T10:57:09;3.83;;;1.92;;
39776;SDS011;25453;48.162;14.510;2022-11-09T11:10:09;6.03;;;2.33;;
39776;SDS011;25453;48.162;14.510;2022-11-09T11:12:50;6.15;;;2.05;;
39776;SDS011;25453;48.162;14.510;2022-11-09T11:15:24;4.32;;;1.92;;
39776;SDS011;25453;48.162;14.510;2022-11-09T11:18:10;5.90;;;2.08;;
39776;SDS011;25453;48.162;14.510;2022-11-09T11:20:43;3.30;;;1.40;;
39776;SDS011;25453;48.162;14.510;2022-11-09T11:23:24;5.45;;;1.85;;
39776;SDS011;25453;48.162;14.510;2022-11-09T11:29:08;4.80;;;1.75;;
39776;SDS011;25453;48.162;14.510;2022-11-09T11:31:52;5.55;;;2.22;;
39776;SDS011;25453;48.162;14.510;2022-11-09T11:34:26;4.90;;;1.95;;
39776;SDS011;25453;48.162;14.510;2022-11-09T11:40:04;6.80;;;3.05;;
39776;SDS011;25453;48.162;14.510;2022-11-09T11:45:40;7.07;;;2.63;;
39776;SDS011;25453;48.162;14.510;2022-11-09T11:51:08;6.18;;;2.35;;
39776;SDS011;25453;48.162;14.510;2022-11-09T11:56:57;4.85;;;2.30;;
39776;SDS011;25453;48.162;14.510;2022-11-09T11:59:43;4.35;;;1.70;;
39776;SDS011;25453;48.162;14.510;2022-11-09T12:02:48;6.32;;;2.17;;
39776;SDS011;25453;48.162;14.510;2022-11-09T12:08:32;4.18;;;1.83;;
39776;SDS011;25453;48.162;14.510;2022-11-09T12:14:35;5.32;;;2.00;;
39776;SDS011;25453;48.162;14.510;2022-11-09T12:20:17;4.32;;;1.90;;
39776;SDS011;25453;48.162;14.510;2022-11-09T12:37:08;6.97;;;2.75;;
39776;SDS011;25453;48.162;14.510;2022-11-09T12:39:49;4.93;;;1.95;;
39776;SDS011;25453;48.162;14.510;2022-11-09T12:42:27;5.07;;;2.20;;
39776;SDS011;25453;48.162;14.510;2022-11-09T12:45:10;4.72;;;1.80;;
39776;SDS011;25453;48.162;14.510;2022-11-09T12:47:54;5.47;;;2.40;;
39776;SDS011;25453;48.162;14.510;2022-11-09T12:50:30;7.03;;;3.00;;
39776;SDS011;25453;48.162;14.510;2022-11-09T12:53:05;6.28;;;2.80;;
39776;SDS011;25453;48.162;14.510;2022-11-09T12:55:46;7.82;;;3.08;;
39776;SDS011;25453;48.162;14.510;2022-11-09T12:58:23;6.05;;;2.63;;
39776;SDS011;25453;48.162;14.510;2022-11-09T13:01:00;6.47;;;2.95;;
39776;SDS011;25453;48.162;14.510;2022-11-09T13:03:37;6.28;;;2.63;;
39776;SDS011;25453;48.162;14.510;2022-11-09T13:06:23;6.65;;;2.58;;
39776;SDS011;25453;48.162;14.510;2022-11-09T13:09:18;4.13;;;2.33;;
39776;SDS011;25453;48.162;14.510;2022-11-09T13:11:50;5.30;;;2.30;;
39776;SDS011;25453;48.162;14.510;2022-11-09T13:17:01;6.63;;;3.03;;
39776;SDS011;25453;48.162;14.510;2022-11-09T13:19:51;7.38;;;2.65;;
39776;SDS011;25453;48.162;14.510;2022-11-09T13:31:13;6.18;;;2.08;;
39776;SDS011;25453;48.162;14.510;2022-11-09T13:43:32;4.75;;;1.88;;
39776;SDS011;25453;48.162;14.510;2022-11-09T13:48:52;5.32;;;2.40;;
39776;SDS011;25453;48.162;14.510;2022-11-09T13:54:32;4.40;;;2.33;;
39776;SDS011;25453;48.162;14.510;2022-11-09T13:57:02;5.68;;;2.28;;
39776;SDS011;25453;48.162;14.510;2022-11-09T13:59:44;5.53;;;2.10;;
39776;SDS011;25453;48.162;14.510;2022-11-09T14:02:21;5.53;;;2.30;;
39776;SDS011;25453;48.162;14.510;2022-11-09T14:04:56;3.17;;;1.52;;
39776;SDS011;25453;48.162;14.510;2022-11-09T14:07:34;5.45;;;1.90;;
39776;SDS011;25453;48.162;14.510;2022-11-09T14:18:49;6.90;;;2.50;;
39776;SDS011;25453;48.162;14.510;2022-11-09T14:21:16;4.07;;;1.67;;
39776;SDS011;25453;48.162;14.510;2022-11-09T14:24:46;5.72;;;2.70;;
39776;SDS011;25453;48.162;14.510;2022-11-09T14:27:14;6.28;;;2.20;;
39776;SDS011;25453;48.162;14.510;2022-11-09T14:29:57;5.65;;;2.55;;
39776;SDS011;25453;48.162;14.510;2022-11-09T14:32:31;4.65;;;2.40;;
39776;SDS011;25453;48.162;14.510;2022-11-09T14:35:13;6.07;;;2.78;;
39776;SDS011;25453;48.162;14.510;2022-11-09T14:37:47;5.82;;;2.00;;
39776;SDS011;25453;48.162;14.510;2022-11-09T14:40:24;4.25;;;1.73;;
39776;SDS011;25453;48.162;14.510;2022-11-09T14:46:02;5.57;;;2.30;;
39776;SDS011;25453;48.162;14.510;2022-11-09T14:48:31;6.88;;;3.55;;
39776;SDS011;25453;48.162;14.510;2022-11-09T14:51:11;6.68;;;2.50;;
39776;SDS011;25453;48.162;14.510;2022-11-09T14:53:40;6.68;;;2.70;;
39776;SDS011;25453;48.162;14.510;2022-11-09T14:56:17;5.78;;;1.98;;
39776;SDS011;25453;48.162;14.510;2022-11-09T14:58:52;6.68;;;2.60;;
39776;SDS011;25453;48.162;14.510;2022-11-09T15:01:23;6.85;;;2.50;;
39776;SDS011;25453;48.162;14.510;2022-11-09T15:04:12;4.18;;;2.20;;
39776;SDS011;25453;48.162;14.510;2022-11-09T15:06:52;5.20;;;2.15;;
39776;SDS011;25453;48.162;14.510;2022-11-09T15:12:00;8.20;;;3.25;;
39776;SDS011;25453;48.162;14.510;2022-11-09T15:14:34;8.00;;;3.40;;
39776;SDS011;25453;48.162;14.510;2022-11-09T15:19:51;8.38;;;3.13;;
39776;SDS011;25453;48.162;14.510;2022-11-09T15:22:35;8.23;;;3.83;;
39776;SDS011;25453;48.162;14.510;2022-11-09T15:28:23;7.22;;;3.60;;
39776;SDS011;25453;48.162;14.510;2022-11-09T15:36:35;9.70;;;3.63;;
39776;SDS011;25453;48.162;14.510;2022-11-09T15:39:17;9.65;;;4.10;;
39776;SDS011;25453;48.162;14.510;2022-11-09T15:41:53;9.13;;;3.95;;
39776;SDS011;25453;48.162;14.510;2022-11-09T15:44:20;8.27;;;3.38;;
39776;SDS011;25453;48.162;14.510;2022-11-09T15:46:51;7.25;;;2.97;;
39776;SDS011;25453;48.162;14.510;2022-11-09T15:49:27;7.60;;;3.35;;
39776;SDS011;25453;48.162;14.510;2022-11-09T15:51:55;7.18;;;3.05;;
39776;SDS011;25453;48.162;14.510;2022-11-09T15:54:23;6.90;;;2.63;;
39776;SDS011;25453;48.162;14.510;2022-11-09T15:56:56;6.30;;;2.53;;
39776;SDS011;25453;48.162;14.510;2022-11-09T15:59:30;7.55;;;2.90;;
39776;SDS011;25453;48.162;14.510;2022-11-09T16:02:05;5.65;;;2.72;;
39776;SDS011;25453;48.162;14.510;2022-11-09T16:04:32;6.55;;;3.10;;
39776;SDS011;25453;48.162;14.510;2022-11-09T16:07:06;7.95;;;3.80;;
39776;SDS011;25453;48.162;14.510;2022-11-09T16:09:37;8.45;;;3.55;;
39776;SDS011;25453;48.162;14.510;2022-11-09T16:12:12;11.98;;;4.55;;
39776;SDS011;25453;48.162;14.510;2022-11-09T16:14:40;8.48;;;3.90;;
39776;SDS011;25453;48.162;14.510;2022-11-09T16:17:13;6.60;;;3.35;;
39776;SDS011;25453;48.162;14.510;2022-11-09T16:19:41;7.40;;;3.17;;
39776;SDS011;25453;48.162;14.510;2022-11-09T16:22:14;8.43;;;3.47;;
39776;SDS011;25453;48.162;14.510;2022-11-09T16:24:50;7.35;;;2.88;;
39776;SDS011;25453;48.162;14.510;2022-11-09T16:27:24;7.82;;;3.60;;
39776;SDS011;25453;48.162;14.510;2022-11-09T16:30:15;7.03;;;3.17;;
39776;SDS011;25453;48.162;14.510;2022-11-09T16:32:43;5.05;;;2.50;;
39776;SDS011;25453;48.162;14.510;2022-11-09T16:35:17;6.82;;;3.22;;
39776;SDS011;25453;48.162;14.510;2022-11-09T16:37:53;7.43;;;2.90;;
39776;SDS011;25453;48.162;14.510;2022-11-09T16:40:29;5.13;;;2.60;;
39776;SDS011;25453;48.162;14.510;2022-11-09T16:42:57;5.90;;;2.83;;
39776;SDS011;25453;48.162;14.510;2022-11-09T16:45:32;4.60;;;2.42;;
39776;SDS011;25453;48.162;14.510;2022-11-09T16:48:01;8.05;;;2.90;;
39776;SDS011;25453;48.162;14.510;2022-11-09T16:50:42;7.18;;;3.10;;
39776;SDS011;25453;48.162;14.510;2022-11-09T16:55:51;7.35;;;3.20;;
39776;SDS011;25453;48.162;14.510;2022-11-09T16:58:26;6.57;;;2.87;;
39776;SDS011;25453;48.162;14.510;2022-11-09T17:00:53;7.38;;;2.72;;
39776;SDS011;25453;48.162;14.510;2022-11-09T17:03:38;7.95;;;3.47;;
39776;SDS011;25453;48.162;14.510;2022-11-09T17:06:05;7.32;;;3.10;;
39776;SDS011;25453;48.162;14.510;2022-11-09T17:08:43;7.63;;;3.10;;
39776;SDS011;25453;48.162;14.510;2022-11-09T17:11:16;7.53;;;3.35;;
39776;SDS011;25453;48.162;14.510;2022-11-09T17:13:54;8.55;;;3.55;;
39776;SDS011;25453;48.162;14.510;2022-11-09T17:16:23;8.35;;;3.10;;